Time;durP1;ratioP1;P1;durP2;ratioP2;P2;SDS_P1;SDS_P2;PMS_P1;PMS_P2;Temp;Humidity;BMP_temperature;BMP_pressure;BME280_temperature;BME280_humidity;BME280_pressure;Samples;Min_cycle;Max_cycle;Signal;HPM_P1;HPM_P2
2021/11/21 00:00:10;;;;;;;74.07;41.57;;;;;;;;;;4450658;32;20215;-53
2021/11/21 00:02:35;;;;;;;84.67;38.63;;;;;;;;;;4457380;32;20314;-54
2021/11/21 00:05:00;;;;;;;79.17;36.70;;;;;;;;;;4454494;32;20272;-53
2021/11/21 00:07:26;;;;;;;75.70;37.93;;;;;;;;;;4464289;32;20371;-53
2021/11/21 00:09:52;;;;;;;72.20;37.47;;;;;;;;;;4454749;32;20260;-54
2021/11/21 00:12:18;;;;;;;73.13;38.67;;;;;;;;;;4450640;32;20248;-54
2021/11/21 00:14:43;;;;;;;77.00;40.23;;;;;;;;;;4449982;32;20328;-55
2021/11/21 00:17:09;;;;;;;76.47;37.70;;;;;;;;;;4450705;32;20212;-54
2021/11/21 00:19:35;;;;;;;78.10;40.07;;;;;;;;;;4459015;32;20318;-53
2021/11/21 00:22:03;;;;;;;81.47;40.00;;;;;;;;;;4466111;32;20266;-54
2021/11/21 00:24:28;;;;;;;80.93;38.63;;;;;;;;;;4457721;32;20189;-53
2021/11/21 00:26:54;;;;;;;66.27;36.33;;;;;;;;;;4449361;32;20348;-56
2021/11/21 00:29:19;;;;;;;66.03;35.33;;;;;;;;;;4458347;32;20331;-54
2021/11/21 00:31:45;;;;;;;64.77;37.20;;;;;;;;;;4459314;32;20298;-54
2021/11/21 00:34:10;;;;;;;64.23;34.27;;;;;;;;;;4456990;32;20365;-54
2021/11/21 00:36:36;;;;;;;74.97;38.33;;;;;;;;;;4465681;32;20232;-54
2021/11/21 00:39:02;;;;;;;59.10;34.63;;;;;;;;;;4465905;32;20259;-54
2021/11/21 00:41:27;;;;;;;82.03;38.30;;;;;;;;;;4465699;32;20219;-53
2021/11/21 00:43:53;;;;;;;76.80;37.43;;;;;;;;;;4465569;32;20263;-54
2021/11/21 00:46:18;;;;;;;66.13;36.73;;;;;;;;;;4465920;32;20551;-53
2021/11/21 00:48:44;;;;;;;72.77;36.83;;;;;;;;;;4461202;32;20523;-53
2021/11/21 00:51:10;;;;;;;63.27;33.83;;;;;;;;;;4450021;32;20303;-54
2021/11/21 00:53:38;;;;;;;64.43;32.93;;;;;;;;;;4449883;32;20644;-56
2021/11/21 00:56:04;;;;;;;56.87;32.70;;;;;;;;;;4450174;32;20315;-55
2021/11/21 00:58:32;;;;;;;62.97;30.70;;;;;;;;;;4452552;32;20328;-53
2021/11/21 01:00:57;;;;;;;57.67;29.73;;;;;;;;;;4449972;32;20223;-53
2021/11/21 01:03:25;;;;;;;55.30;27.57;;;;;;;;;;4462232;32;20595;-54
2021/11/21 01:05:54;;;;;;;53.17;27.27;;;;;;;;;;4449603;32;20197;-54
2021/11/21 01:08:20;;;;;;;63.43;30.90;;;;;;;;;;4451148;32;20250;-54
2021/11/21 01:10:48;;;;;;;76.07;37.00;;;;;;;;;;4465195;32;20251;-55
2021/11/21 01:13:14;;;;;;;70.40;36.83;;;;;;;;;;4461917;32;20406;-55
2021/11/21 01:15:40;;;;;;;66.93;35.67;;;;;;;;;;4463157;32;20304;-54
2021/11/21 01:18:07;;;;;;;70.23;36.40;;;;;;;;;;4463264;32;20274;-54
2021/11/21 01:20:34;;;;;;;73.37;37.67;;;;;;;;;;4464416;32;20552;-54
2021/11/21 01:23:00;;;;;;;67.90;34.83;;;;;;;;;;4465391;32;20216;-54
2021/11/21 01:25:27;;;;;;;65.67;35.83;;;;;;;;;;4463039;32;20283;-54
2021/11/21 01:27:53;;;;;;;54.10;30.83;;;;;;;;;;4465398;32;20212;-53
2021/11/21 01:30:25;;;;;;;57.20;31.93;;;;;;;;;;4450815;32;20205;-54
2021/11/21 01:32:51;;;;;;;72.77;33.60;;;;;;;;;;4449749;32;20530;-54
2021/11/21 01:35:16;;;;;;;64.57;32.80;;;;;;;;;;4435270;32;20333;-54
2021/11/21 01:37:42;;;;;;;69.07;32.10;;;;;;;;;;4449618;32;20370;-54
2021/11/21 01:40:10;;;;;;;67.23;39.50;;;;;;;;;;4455662;32;20297;-54
2021/11/21 01:42:36;;;;;;;52.03;31.70;;;;;;;;;;4464851;32;20217;-54
2021/11/21 01:45:03;;;;;;;58.70;31.60;;;;;;;;;;4464507;32;20298;-53
2021/11/21 01:47:28;;;;;;;57.70;29.07;;;;;;;;;;4465258;32;20267;-54
2021/11/21 01:49:54;;;;;;;45.07;24.10;;;;;;;;;;4464995;32;20290;-54
2021/11/21 01:52:20;;;;;;;56.33;24.27;;;;;;;;;;4463469;32;20225;-54
2021/11/21 01:54:46;;;;;;;39.70;21.50;;;;;;;;;;4464743;32;20551;-54
2021/11/21 01:57:12;;;;;;;40.70;21.43;;;;;;;;;;4457055;32;20212;-55
2021/11/21 01:59:38;;;;;;;50.37;25.00;;;;;;;;;;4453186;32;20296;-54
2021/11/21 02:02:04;;;;;;;49.27;24.13;;;;;;;;;;4448938;32;20320;-54
2021/11/21 02:04:29;;;;;;;45.97;24.63;;;;;;;;;;4447640;32;20318;-54
2021/11/21 02:06:55;;;;;;;54.90;26.37;;;;;;;;;;4449019;32;20371;-55
2021/11/21 02:09:20;;;;;;;43.60;23.60;;;;;;;;;;4448879;32;20318;-53
2021/11/21 02:11:46;;;;;;;48.97;24.70;;;;;;;;;;4448939;32;20251;-53
2021/11/21 02:14:11;;;;;;;61.83;27.70;;;;;;;;;;4448835;32;20346;-54
2021/11/21 02:16:38;;;;;;;63.07;28.37;;;;;;;;;;4448641;32;20649;-54
2021/11/21 02:19:04;;;;;;;49.97;26.97;;;;;;;;;;4449040;32;20482;-56
2021/11/21 02:21:29;;;;;;;49.50;29.10;;;;;;;;;;4448764;32;20442;-54
2021/11/21 02:23:55;;;;;;;48.83;29.80;;;;;;;;;;4449932;32;20321;-54
2021/11/21 02:26:21;;;;;;;52.10;29.13;;;;;;;;;;4463090;32;20307;-54
2021/11/21 02:28:49;;;;;;;49.10;26.93;;;;;;;;;;4459788;32;20291;-54
2021/11/21 02:31:15;;;;;;;55.70;27.50;;;;;;;;;;4448967;32;20212;-54
2021/11/21 02:33:42;;;;;;;48.50;26.80;;;;;;;;;;4447422;32;20315;-54
2021/11/21 02:36:09;;;;;;;60.97;28.77;;;;;;;;;;4453467;32;20220;-53
2021/11/21 02:38:36;;;;;;;66.50;31.57;;;;;;;;;;4461221;32;20220;-53
2021/11/21 02:41:05;;;;;;;53.87;30.97;;;;;;;;;;4448650;32;20304;-53
2021/11/21 02:43:31;;;;;;;55.67;31.40;;;;;;;;;;4456478;32;20240;-54
2021/11/21 02:45:57;;;;;;;64.23;32.53;;;;;;;;;;4448202;32;20298;-54
2021/11/21 02:48:26;;;;;;;64.90;35.57;;;;;;;;;;4448556;32;20615;-54
2021/11/21 02:50:52;;;;;;;73.87;34.63;;;;;;;;;;4447056;32;20213;-54
2021/11/21 02:53:20;;;;;;;70.27;37.07;;;;;;;;;;4449729;32;20190;-54
2021/11/21 02:55:46;;;;;;;63.87;32.43;;;;;;;;;;4464108;32;20284;-53
2021/11/21 02:58:12;;;;;;;53.20;27.20;;;;;;;;;;4453828;32;20627;-53
2021/11/21 03:00:39;;;;;;;43.93;22.40;;;;;;;;;;4466935;32;20256;-53
2021/11/21 03:03:06;;;;;;;35.93;19.73;;;;;;;;;;4467186;32;20699;-54
2021/11/21 03:05:33;;;;;;;48.93;23.27;;;;;;;;;;4451324;32;20273;-54
2021/11/21 03:07:59;;;;;;;52.10;24.27;;;;;;;;;;4451408;32;20587;-53
2021/11/21 03:10:24;;;;;;;48.00;24.67;;;;;;;;;;4451128;32;20359;-53
2021/11/21 03:12:53;;;;;;;65.50;27.33;;;;;;;;;;4451369;32;20255;-53
2021/11/21 03:15:20;;;;;;;35.83;18.83;;;;;;;;;;4451150;32;20258;-53
2021/11/21 03:17:46;;;;;;;39.83;20.27;;;;;;;;;;4451518;32;20253;-53
2021/11/21 03:20:15;;;;;;;44.63;20.60;;;;;;;;;;4450970;32;20255;-54
2021/11/21 03:22:41;;;;;;;45.80;22.63;;;;;;;;;;4451137;32;20614;-53
2021/11/21 03:25:09;;;;;;;34.67;20.03;;;;;;;;;;4459900;32;20464;-54
2021/11/21 03:27:35;;;;;;;36.43;20.20;;;;;;;;;;4465517;32;20727;-54
2021/11/21 03:30:03;;;;;;;37.00;22.40;;;;;;;;;;4454174;32;20300;-55
2021/11/21 03:32:29;;;;;;;51.53;24.90;;;;;;;;;;4455250;32;20718;-55
2021/11/21 03:34:54;;;;;;;37.67;22.40;;;;;;;;;;4453519;32;20398;-54
2021/11/21 03:37:20;;;;;;;42.27;23.53;;;;;;;;;;4451502;32;20338;-53
2021/11/21 03:39:45;;;;;;;50.67;26.57;;;;;;;;;;4450987;32;20661;-54
2021/11/21 03:42:11;;;;;;;45.33;26.00;;;;;;;;;;4453451;32;20204;-53
2021/11/21 03:44:36;;;;;;;52.07;26.07;;;;;;;;;;4455979;32;20271;-53
2021/11/21 03:47:02;;;;;;;49.63;26.60;;;;;;;;;;4454579;32;20592;-53
2021/11/21 03:49:28;;;;;;;56.73;30.37;;;;;;;;;;4456804;32;20567;-54
2021/11/21 03:51:54;;;;;;;57.17;28.87;;;;;;;;;;4463529;32;20389;-53
2021/11/21 03:54:19;;;;;;;51.23;29.07;;;;;;;;;;4456745;32;20806;-53
2021/11/21 03:56:45;;;;;;;62.33;33.37;;;;;;;;;;4455305;32;20315;-53
2021/11/21 03:59:10;;;;;;;79.03;39.30;;;;;;;;;;4457490;32;20311;-54
2021/11/21 04:01:35;;;;;;;88.30;46.30;;;;;;;;;;4449997;32;20587;-53
2021/11/21 04:04:05;;;;;;;95.30;51.20;;;;;;;;;;4450538;32;20377;-54
2021/11/21 04:06:31;;;;;;;100.07;50.10;;;;;;;;;;4450306;32;20601;-54
2021/11/21 04:08:57;;;;;;;94.83;52.67;;;;;;;;;;4450241;32;20296;-55
2021/11/21 04:11:22;;;;;;;71.30;40.47;;;;;;;;;;4450119;32;20254;-53
2021/11/21 04:13:48;;;;;;;78.67;38.13;;;;;;;;;;4453457;32;20283;-53
2021/11/21 04:16:13;;;;;;;71.80;36.90;;;;;;;;;;4465873;32;20322;-53
2021/11/21 04:18:39;;;;;;;79.50;34.83;;;;;;;;;;4461749;32;20284;-55
2021/11/21 04:21:04;;;;;;;73.47;32.60;;;;;;;;;;4449984;32;20233;-53
2021/11/21 04:23:31;;;;;;;83.30;37.93;;;;;;;;;;4449957;32;20303;-54
2021/11/21 04:25:57;;;;;;;85.73;37.00;;;;;;;;;;4451000;32;20208;-54
2021/11/21 04:28:23;;;;;;;97.67;40.50;;;;;;;;;;4450952;32;20208;-53
2021/11/21 04:30:48;;;;;;;99.43;42.23;;;;;;;;;;4449875;32;20397;-54
2021/11/21 04:33:14;;;;;;;117.40;40.03;;;;;;;;;;4448500;32;20309;-54
2021/11/21 04:35:39;;;;;;;110.03;42.17;;;;;;;;;;4449742;32;20290;-54
2021/11/21 04:38:05;;;;;;;89.50;38.77;;;;;;;;;;4450015;32;20796;-53
2021/11/21 04:40:30;;;;;;;114.80;43.60;;;;;;;;;;4449466;32;20378;-53
2021/11/21 04:42:56;;;;;;;107.37;43.13;;;;;;;;;;4456697;32;20266;-53
2021/11/21 04:45:21;;;;;;;79.43;34.77;;;;;;;;;;4448960;32;20631;-54
2021/11/21 04:47:47;;;;;;;105.47;41.80;;;;;;;;;;4460015;32;20208;-53
2021/11/21 04:50:14;;;;;;;72.17;29.77;;;;;;;;;;4451138;32;20632;-55
2021/11/21 04:52:39;;;;;;;73.23;28.00;;;;;;;;;;4448018;32;20240;-53
2021/11/21 04:55:06;;;;;;;64.43;25.70;;;;;;;;;;4449357;32;20320;-54
2021/11/21 04:57:32;;;;;;;46.77;20.77;;;;;;;;;;4449156;32;20216;-53
2021/11/21 04:59:58;;;;;;;30.73;16.97;;;;;;;;;;4461225;32;20397;-54
2021/11/21 05:02:23;;;;;;;27.17;16.33;;;;;;;;;;4464906;32;20260;-53
2021/11/21 05:04:48;;;;;;;34.13;17.37;;;;;;;;;;4464999;32;20727;-54
2021/11/21 05:07:14;;;;;;;39.37;17.83;;;;;;;;;;4463781;32;20433;-56
2021/11/21 05:09:40;;;;;;;29.93;18.53;;;;;;;;;;4464786;32;20335;-54
2021/11/21 05:12:05;;;;;;;35.40;18.73;;;;;;;;;;4464831;32;20228;-53
2021/11/21 05:14:31;;;;;;;44.70;19.03;;;;;;;;;;4464144;32;20279;-53
2021/11/21 05:16:59;;;;;;;34.40;17.37;;;;;;;;;;4464495;32;20635;-53
2021/11/21 05:19:24;;;;;;;41.93;19.90;;;;;;;;;;4463829;32;20418;-54
2021/11/21 05:21:50;;;;;;;35.63;19.10;;;;;;;;;;4464649;32;20647;-53
2021/11/21 05:24:19;;;;;;;35.27;21.30;;;;;;;;;;4459958;32;20322;-54
2021/11/21 05:26:44;;;;;;;50.73;24.13;;;;;;;;;;4464346;32;20295;-53
2021/11/21 05:29:09;;;;;;;76.53;28.57;;;;;;;;;;4457563;32;20264;-53
2021/11/21 05:31:35;;;;;;;79.20;32.03;;;;;;;;;;4448586;32;20314;-54
2021/11/21 05:34:00;;;;;;;76.67;32.27;;;;;;;;;;4448974;32;20347;-54
2021/11/21 05:36:26;;;;;;;90.67;33.63;;;;;;;;;;4448589;32;20291;-53
2021/11/21 05:38:51;;;;;;;93.63;35.97;;;;;;;;;;4448591;32;20279;-54
2021/11/21 05:41:16;;;;;;;76.53;32.03;;;;;;;;;;4463798;32;20258;-54
2021/11/21 05:43:42;;;;;;;79.77;33.83;;;;;;;;;;4459450;32;20279;-53
2021/11/21 05:46:07;;;;;;;74.67;32.97;;;;;;;;;;4448590;32;20579;-53
2021/11/21 05:48:33;;;;;;;94.20;34.67;;;;;;;;;;4448545;32;20299;-53
2021/11/21 05:50:58;;;;;;;73.47;36.97;;;;;;;;;;4448276;32;20221;-53
2021/11/21 05:53:23;;;;;;;83.57;36.60;;;;;;;;;;4448361;32;20317;-53
2021/11/21 05:55:49;;;;;;;75.87;35.47;;;;;;;;;;4448615;32;20264;-54
2021/11/21 05:58:18;;;;;;;85.93;37.63;;;;;;;;;;4460357;32;20336;-55
2021/11/21 06:00:44;;;;;;;92.23;40.87;;;;;;;;;;4448163;32;20220;-53
2021/11/21 06:03:10;;;;;;;93.37;41.37;;;;;;;;;;4447978;32;20238;-54
2021/11/21 06:05:35;;;;;;;80.63;38.70;;;;;;;;;;4448168;32;20295;-54
2021/11/21 06:08:05;;;;;;;99.83;42.10;;;;;;;;;;4447067;32;20232;-54
2021/11/21 06:10:31;;;;;;;77.03;34.33;;;;;;;;;;4457230;32;20230;-54
2021/11/21 06:12:56;;;;;;;87.47;38.70;;;;;;;;;;4454741;32;20219;-53
2021/11/21 06:15:22;;;;;;;84.17;39.70;;;;;;;;;;4462317;32;20382;-54
2021/11/21 06:17:47;;;;;;;91.57;43.53;;;;;;;;;;4463745;32;20259;-53
2021/11/21 06:20:13;;;;;;;94.00;40.43;;;;;;;;;;4464112;32;20283;-53
2021/11/21 06:22:39;;;;;;;83.93;40.50;;;;;;;;;;4463556;32;20270;-53
2021/11/21 06:25:06;;;;;;;89.77;38.93;;;;;;;;;;4455411;32;20295;-55
2021/11/21 06:27:31;;;;;;;106.63;47.37;;;;;;;;;;4446079;32;20427;-53
2021/11/21 06:29:57;;;;;;;102.33;50.13;;;;;;;;;;4446746;32;20255;-54
2021/11/21 06:32:22;;;;;;;101.13;51.23;;;;;;;;;;4444866;32;20248;-54
2021/11/21 06:34:48;;;;;;;110.77;52.30;;;;;;;;;;4446166;32;20299;-53
2021/11/21 06:37:14;;;;;;;118.27;50.30;;;;;;;;;;4446395;32;20253;-53
2021/11/21 06:39:41;;;;;;;110.70;49.77;;;;;;;;;;4451076;32;20243;-53
2021/11/21 06:42:08;;;;;;;107.97;49.33;;;;;;;;;;4461571;32;20244;-53
2021/11/21 06:44:33;;;;;;;82.33;41.20;;;;;;;;;;4462793;32;20192;-53
2021/11/21 06:46:59;;;;;;;95.63;45.13;;;;;;;;;;4463261;32;20341;-53
2021/11/21 06:49:24;;;;;;;96.27;45.50;;;;;;;;;;4462115;32;20418;-53
2021/11/21 06:51:50;;;;;;;97.07;48.37;;;;;;;;;;4462252;32;20672;-53
2021/11/21 06:54:16;;;;;;;99.90;50.73;;;;;;;;;;4460618;32;20221;-53
2021/11/21 06:56:43;;;;;;;97.27;46.90;;;;;;;;;;4451565;32;20228;-53
2021/11/21 06:59:08;;;;;;;114.57;50.97;;;;;;;;;;4448100;32;20272;-54
2021/11/21 07:01:34;;;;;;;117.87;53.43;;;;;;;;;;4447664;32;20756;-54
2021/11/21 07:03:59;;;;;;;112.77;55.57;;;;;;;;;;4447707;32;20271;-53
2021/11/21 07:06:36;;;;;;;141.33;67.10;;;;;;;;;;4446202;32;20364;-53
2021/11/21 07:09:05;;;;;;;149.13;72.67;;;;;;;;;;4447824;32;20246;-58
2021/11/21 07:11:31;;;;;;;155.20;77.00;;;;;;;;;;4447972;32;21144;-59
2021/11/21 07:13:57;;;;;;;179.77;88.53;;;;;;;;;;4447832;32;20573;-59
2021/11/21 07:16:23;;;;;;;177.73;88.63;;;;;;;;;;4447423;32;20289;-59
2021/11/21 07:18:48;;;;;;;182.07;82.77;;;;;;;;;;4461508;32;20432;-58
2021/11/21 07:21:14;;;;;;;173.43;83.30;;;;;;;;;;4463310;32;20334;-58
2021/11/21 07:23:40;;;;;;;149.00;71.33;;;;;;;;;;4463371;32;20409;-58
2021/11/21 07:26:06;;;;;;;126.90;67.90;;;;;;;;;;4462981;32;20234;-59
2021/11/21 07:28:31;;;;;;;122.37;64.87;;;;;;;;;;4463794;32;20332;-59
2021/11/21 07:30:57;;;;;;;162.23;71.23;;;;;;;;;;4464063;32;20334;-59
2021/11/21 07:33:23;;;;;;;154.10;73.37;;;;;;;;;;4464164;32;20298;-60
2021/11/21 07:35:51;;;;;;;132.93;69.17;;;;;;;;;;4463748;32;20283;-58
2021/11/21 07:38:16;;;;;;;139.37;67.97;;;;;;;;;;4458613;32;20220;-59
2021/11/21 07:40:42;;;;;;;157.90;75.90;;;;;;;;;;4448901;32;20326;-58
2021/11/21 07:43:07;;;;;;;152.57;75.30;;;;;;;;;;4458684;32;20250;-59
2021/11/21 07:45:33;;;;;;;152.83;73.90;;;;;;;;;;4466850;32;20263;-59
2021/11/21 07:47:58;;;;;;;146.93;78.13;;;;;;;;;;4465320;32;20216;-59
2021/11/21 07:50:24;;;;;;;161.43;79.73;;;;;;;;;;4448984;32;20212;-58
2021/11/21 07:52:49;;;;;;;145.73;74.00;;;;;;;;;;4456536;32;20650;-59
2021/11/21 07:55:15;;;;;;;141.60;72.27;;;;;;;;;;4466615;32;20702;-59
2021/11/21 07:57:41;;;;;;;125.63;66.63;;;;;;;;;;4466252;32;20258;-58
2021/11/21 08:00:10;;;;;;;137.50;73.07;;;;;;;;;;4466767;32;20335;-58
2021/11/21 08:02:36;;;;;;;141.10;71.23;;;;;;;;;;4465988;32;20754;-59
2021/11/21 08:05:03;;;;;;;141.50;71.30;;;;;;;;;;4466346;32;20210;-59
2021/11/21 08:07:29;;;;;;;130.30;70.33;;;;;;;;;;4465516;32;20666;-58
2021/11/21 08:09:54;;;;;;;149.13;74.80;;;;;;;;;;4466671;32;20283;-58
2021/11/21 08:12:20;;;;;;;155.57;79.90;;;;;;;;;;4466258;32;20244;-58
2021/11/21 08:14:45;;;;;;;149.63;77.57;;;;;;;;;;4464890;32;20325;-58
2021/11/21 08:17:11;;;;;;;134.60;71.90;;;;;;;;;;4465707;32;20720;-59
2021/11/21 08:19:38;;;;;;;158.87;83.43;;;;;;;;;;4465135;32;20259;-59
2021/11/21 08:22:04;;;;;;;140.50;71.37;;;;;;;;;;4462564;32;20217;-60
2021/11/21 08:24:29;;;;;;;132.33;70.50;;;;;;;;;;4451865;32;20275;-60
2021/11/21 08:26:55;;;;;;;143.13;74.77;;;;;;;;;;4449582;32;20410;-60
2021/11/21 08:29:20;;;;;;;149.97;74.20;;;;;;;;;;4450860;32;20348;-59
2021/11/21 08:31:48;;;;;;;134.47;71.87;;;;;;;;;;4454351;32;20522;-60
2021/11/21 08:34:13;;;;;;;144.00;72.23;;;;;;;;;;4465988;32;20200;-59
2021/11/21 08:36:39;;;;;;;118.73;62.27;;;;;;;;;;4466168;32;20617;-59
2021/11/21 08:39:04;;;;;;;107.63;58.13;;;;;;;;;;4466744;32;20326;-60
2021/11/21 08:41:30;;;;;;;102.47;55.13;;;;;;;;;;4465798;32;20277;-59
2021/11/21 08:43:57;;;;;;;94.50;50.27;;;;;;;;;;4451219;32;20335;-59
2021/11/21 08:46:23;;;;;;;84.67;43.90;;;;;;;;;;4450885;32;20224;-60
2021/11/21 08:48:48;;;;;;;81.43;42.47;;;;;;;;;;4449915;32;20267;-60
2021/11/21 08:51:13;;;;;;;76.57;38.97;;;;;;;;;;4450443;32;20388;-59
2021/11/21 08:53:39;;;;;;;78.27;40.67;;;;;;;;;;4450400;32;20283;-59
2021/11/21 08:56:05;;;;;;;65.13;39.27;;;;;;;;;;4450686;32;20255;-58
2021/11/21 08:58:30;;;;;;;57.03;34.10;;;;;;;;;;4466037;32;20275;-60
2021/11/21 09:00:56;;;;;;;65.40;37.30;;;;;;;;;;4466517;32;20272;-59
2021/11/21 09:03:21;;;;;;;59.13;33.13;;;;;;;;;;4461590;32;20205;-59
2021/11/21 09:05:47;;;;;;;75.73;35.00;;;;;;;;;;4456119;32;20362;-60
2021/11/21 09:08:14;;;;;;;64.47;34.07;;;;;;;;;;4449151;32;20212;-59
2021/11/21 09:10:41;;;;;;;56.23;32.47;;;;;;;;;;4458350;32;20250;-63
2021/11/21 09:13:06;;;;;;;54.57;31.73;;;;;;;;;;4464326;32;20247;-61
2021/11/21 09:15:32;;;;;;;52.73;31.50;;;;;;;;;;4462797;32;20371;-60
2021/11/21 09:17:57;;;;;;;45.87;27.10;;;;;;;;;;4462783;32;20283;-60
2021/11/21 09:20:23;;;;;;;40.43;23.67;;;;;;;;;;4464277;32;20295;-59
2021/11/21 09:22:50;;;;;;;43.20;23.60;;;;;;;;;;4464176;32;20584;-60
2021/11/21 09:25:16;;;;;;;37.30;22.53;;;;;;;;;;4463414;32;20287;-59
2021/11/21 09:27:41;;;;;;;40.60;24.50;;;;;;;;;;4462856;32;20243;-59
2021/11/21 09:30:09;;;;;;;45.67;26.77;;;;;;;;;;4464178;32;20667;-60
2021/11/21 09:32:36;;;;;;;46.53;26.83;;;;;;;;;;4462943;32;20371;-59
2021/11/21 09:35:03;;;;;;;40.83;26.00;;;;;;;;;;4464246;32;20272;-59
2021/11/21 09:37:28;;;;;;;53.73;28.20;;;;;;;;;;4462434;32;20265;-58
2021/11/21 09:39:54;;;;;;;37.53;24.97;;;;;;;;;;4463738;32;20295;-59
2021/11/21 09:42:19;;;;;;;37.70;23.80;;;;;;;;;;4464001;32;20702;-58
2021/11/21 09:44:45;;;;;;;63.43;29.87;;;;;;;;;;4463562;32;20300;-60
2021/11/21 09:47:12;;;;;;;48.73;26.60;;;;;;;;;;4463358;32;20224;-59
2021/11/21 09:49:37;;;;;;;47.17;26.00;;;;;;;;;;4463359;32;20273;-59
2021/11/21 09:52:04;;;;;;;37.37;24.03;;;;;;;;;;4463744;32;20236;-58
2021/11/21 09:54:29;;;;;;;36.53;24.33;;;;;;;;;;4463339;32;20617;-59
2021/11/21 09:56:56;;;;;;;38.13;20.57;;;;;;;;;;4457739;32;20345;-59
2021/11/21 10:00:00;;;;;;;38.53;23.17;;;;;;;;;;4446734;32;20249;-59
2021/11/21 10:02:38;;;;;;;35.70;21.50;;;;;;;;;;4447730;32;20676;-58
2021/11/21 10:05:16;;;;;;;36.53;20.63;;;;;;;;;;4447956;32;20228;-59
2021/11/21 10:07:42;;;;;;;36.13;20.60;;;;;;;;;;4447404;32;20286;-59
2021/11/21 10:10:12;;;;;;;31.40;19.87;;;;;;;;;;4447515;32;20704;-61
2021/11/21 10:12:43;;;;;;;40.10;19.80;;;;;;;;;;4446662;32;20776;-58
2021/11/21 10:15:17;;;;;;;39.53;22.93;;;;;;;;;;4447975;32;20213;-60
2021/11/21 10:17:47;;;;;;;30.93;19.87;;;;;;;;;;4447442;32;20243;-60
2021/11/21 10:20:29;;;;;;;38.10;20.30;;;;;;;;;;4445796;32;20245;-59
2021/11/21 10:23:07;;;;;;;46.47;18.70;;;;;;;;;;4446766;32;20446;-60
2021/11/21 10:25:37;;;;;;;33.37;19.23;;;;;;;;;;4446785;32;20305;-59
2021/11/21 10:28:03;;;;;;;36.43;20.67;;;;;;;;;;4446335;32;20609;-60
2021/11/21 10:30:29;;;;;;;32.43;18.67;;;;;;;;;;4446521;32;20997;-59
2021/11/21 10:32:55;;;;;;;36.13;19.57;;;;;;;;;;4446389;32;20366;-59
2021/11/21 10:35:23;;;;;;;30.70;18.47;;;;;;;;;;4446384;32;20310;-60
2021/11/21 10:37:49;;;;;;;31.93;18.03;;;;;;;;;;4444977;32;20252;-61
2021/11/21 10:40:17;;;;;;;34.93;21.70;;;;;;;;;;4445852;32;20311;-59
2021/11/21 10:42:45;;;;;;;38.73;23.63;;;;;;;;;;4452289;32;20286;-59
2021/11/21 10:45:14;;;;;;;31.83;22.93;;;;;;;;;;4462613;32;20610;-59
2021/11/21 10:47:48;;;;;;;39.20;20.33;;;;;;;;;;4462266;32;20270;-59
2021/11/21 10:50:26;;;;;;;46.90;24.27;;;;;;;;;;4461166;32;20231;-59
2021/11/21 10:52:52;;;;;;;36.17;21.20;;;;;;;;;;4446251;32;20368;-61
2021/11/21 10:55:17;;;;;;;32.60;21.67;;;;;;;;;;4446368;32;20734;-60
2021/11/21 10:57:43;;;;;;;106.90;64.60;;;;;;;;;;4445401;32;20664;-60
2021/11/21 11:00:19;;;;;;;37.83;21.20;;;;;;;;;;4446071;32;20302;-59
2021/11/21 11:02:45;;;;;;;44.20;27.63;;;;;;;;;;4453421;32;20255;-60
2021/11/21 11:05:13;;;;;;;34.97;25.67;;;;;;;;;;4460605;32;20313;-60
2021/11/21 11:07:47;;;;;;;44.43;25.87;;;;;;;;;;4460947;32;20255;-60
2021/11/21 11:10:33;;;;;;;38.43;24.30;;;;;;;;;;4461099;32;20687;-59
2021/11/21 11:13:04;;;;;;;36.70;21.20;;;;;;;;;;4462625;32;20300;-59
2021/11/21 11:15:33;;;;;;;43.07;26.13;;;;;;;;;;4462178;32;20625;-59
2021/11/21 11:17:58;;;;;;;58.37;28.30;;;;;;;;;;4463569;32;20302;-59
2021/11/21 11:20:26;;;;;;;42.67;24.87;;;;;;;;;;4465359;32;20478;-59
2021/11/21 11:22:52;;;;;;;57.63;28.73;;;;;;;;;;4465576;32;20240;-60
2021/11/21 11:25:31;;;;;;;89.23;49.87;;;;;;;;;;4464718;32;20306;-60
2021/11/21 11:28:15;;;;;;;127.27;63.67;;;;;;;;;;4464548;32;20263;-59
2021/11/21 11:30:41;;;;;;;66.77;35.07;;;;;;;;;;4464016;32;20397;-60
2021/11/21 11:33:18;;;;;;;54.27;30.43;;;;;;;;;;4465060;32;20216;-60
2021/11/21 11:35:45;;;;;;;44.37;26.63;;;;;;;;;;4463996;32;20277;-59
2021/11/21 11:38:22;;;;;;;92.70;46.20;;;;;;;;;;4464137;32;20243;-59
2021/11/21 11:40:58;;;;;;;50.03;27.37;;;;;;;;;;4465121;32;20216;-60
2021/11/21 11:43:34;;;;;;;142.87;79.07;;;;;;;;;;4464225;32;20228;-60
2021/11/21 11:46:24;;;;;;;64.63;35.73;;;;;;;;;;4464598;32;20228;-59
2021/11/21 11:48:52;;;;;;;48.67;27.67;;;;;;;;;;4440262;32;20601;-60
2021/11/21 11:51:27;;;;;;;33.07;22.10;;;;;;;;;;4447758;32;20387;-60
2021/11/21 11:53:54;;;;;;;42.70;23.10;;;;;;;;;;4449193;32;20215;-58
2021/11/21 11:56:25;;;;;;;47.23;30.07;;;;;;;;;;4449083;32;20416;-59
2021/11/21 11:59:02;;;;;;;57.10;36.30;;;;;;;;;;4454104;32;20294;-60
2021/11/21 12:01:38;;;;;;;33.90;19.00;;;;;;;;;;4463105;32;20255;-59
2021/11/21 12:04:04;;;;;;;35.20;19.07;;;;;;;;;;4463105;32;20288;-59
2021/11/21 12:06:41;;;;;;;28.73;20.23;;;;;;;;;;4464483;32;20620;-59
2021/11/21 12:09:16;;;;;;;47.43;24.37;;;;;;;;;;4464358;32;20624;-60
2021/11/21 12:12:05;;;;;;;44.27;29.97;;;;;;;;;;4464037;32;20737;-59
2021/11/21 12:14:42;;;;;;;40.77;23.83;;;;;;;;;;4464162;32;20264;-59
2021/11/21 12:17:16;;;;;;;40.93;25.83;;;;;;;;;;4463771;32;20286;-59
2021/11/21 12:19:43;;;;;;;39.13;25.10;;;;;;;;;;4464787;32;20676;-60
2021/11/21 12:22:23;;;;;;;64.93;45.83;;;;;;;;;;4461489;32;20247;-59
2021/11/21 12:24:50;;;;;;;44.53;29.93;;;;;;;;;;4464216;32;20246;-61
2021/11/21 12:27:18;;;;;;;50.27;31.67;;;;;;;;;;4464505;32;20363;-60
2021/11/21 12:29:45;;;;;;;55.07;32.63;;;;;;;;;;4462126;32;20212;-59
2021/11/21 12:32:23;;;;;;;55.23;33.20;;;;;;;;;;4461402;32;20342;-59
2021/11/21 12:34:49;;;;;;;57.03;34.07;;;;;;;;;;4461444;32;20693;-59
2021/11/21 12:37:25;;;;;;;54.77;30.87;;;;;;;;;;4464107;32;20368;-60
2021/11/21 12:39:51;;;;;;;49.00;29.13;;;;;;;;;;4464096;32;20219;-59
2021/11/21 12:42:22;;;;;;;54.73;28.43;;;;;;;;;;4459539;32;20258;-59
2021/11/21 12:44:48;;;;;;;40.93;24.77;;;;;;;;;;4461673;32;20493;-59
2021/11/21 12:47:15;;;;;;;38.53;23.77;;;;;;;;;;4462722;32;20319;-59
2021/11/21 12:49:42;;;;;;;40.90;24.30;;;;;;;;;;4463835;32;20225;-60
2021/11/21 12:52:09;;;;;;;45.13;27.70;;;;;;;;;;4462143;32;20714;-59
2021/11/21 12:54:35;;;;;;;60.20;30.90;;;;;;;;;;4464203;32;20273;-59
2021/11/21 12:57:01;;;;;;;44.43;26.63;;;;;;;;;;4457678;32;20283;-60
2021/11/21 12:59:45;;;;;;;42.50;23.53;;;;;;;;;;4448638;32;20314;-59
2021/11/21 13:02:15;;;;;;;39.07;22.73;;;;;;;;;;4447495;32;20323;-59
2021/11/21 13:04:51;;;;;;;34.13;21.00;;;;;;;;;;4448381;32;20249;-60
2021/11/21 13:07:38;;;;;;;43.97;23.97;;;;;;;;;;4445084;32;20266;-59
2021/11/21 13:10:09;;;;;;;46.17;25.70;;;;;;;;;;4452526;32;20267;-59
2021/11/21 13:12:42;;;;;;;33.17;19.17;;;;;;;;;;4461609;32;20743;-59
2021/11/21 13:15:10;;;;;;;27.67;16.67;;;;;;;;;;4462599;32;20209;-60
2021/11/21 13:17:36;;;;;;;32.70;18.63;;;;;;;;;;4462377;32;20323;-59
2021/11/21 13:20:12;;;;;;;32.10;17.50;;;;;;;;;;4463059;32;20340;-59
2021/11/21 13:22:51;;;;;;;30.50;17.40;;;;;;;;;;4463131;32;20589;-58
2021/11/21 13:25:50;;;;;;;20.07;13.47;;;;;;;;;;4463152;32;20315;-59
2021/11/21 13:28:32;;;;;;;25.65;12.68;;;;;;;;;;4463652;32;20279;-59
2021/11/21 13:31:03;;;;;;;20.43;13.03;;;;;;;;;;4463255;32;20200;-59
2021/11/21 13:33:32;;;;;;;31.00;16.07;;;;;;;;;;4463086;32;20569;-59
2021/11/21 13:36:02;;;;;;;37.83;23.67;;;;;;;;;;4463500;32;20409;-59
2021/11/21 13:38:29;;;;;;;39.57;22.27;;;;;;;;;;4463253;32;20243;-59
2021/11/21 13:40:56;;;;;;;47.40;28.37;;;;;;;;;;4463132;32;20295;-59
2021/11/21 13:43:37;;;;;;;51.17;30.30;;;;;;;;;;4463238;32;20250;-60
2021/11/21 13:46:03;;;;;;;55.67;30.27;;;;;;;;;;4464083;32;20652;-60
2021/11/21 13:48:30;;;;;;;50.90;29.17;;;;;;;;;;4462116;32;20827;-60
2021/11/21 13:50:57;;;;;;;45.87;27.33;;;;;;;;;;4463179;32;20628;-59
2021/11/21 13:53:23;;;;;;;54.07;31.03;;;;;;;;;;4463178;32;20263;-60
2021/11/21 13:56:03;;;;;;;60.63;32.90;;;;;;;;;;4464514;32;20722;-59
2021/11/21 13:58:29;;;;;;;54.83;31.53;;;;;;;;;;4464776;32;20227;-59
2021/11/21 14:01:09;;;;;;;59.90;33.70;;;;;;;;;;4464252;32;20292;-60
2021/11/21 14:03:44;;;;;;;52.30;31.77;;;;;;;;;;4464757;32;20301;-60
2021/11/21 14:06:12;;;;;;;56.90;35.23;;;;;;;;;;4457025;32;20543;-59
2021/11/21 14:08:40;;;;;;;56.10;34.77;;;;;;;;;;4448747;32;20507;-59
2021/11/21 14:11:08;;;;;;;59.77;32.93;;;;;;;;;;4448817;32;20232;-60
2021/11/21 14:13:39;;;;;;;53.30;32.73;;;;;;;;;;4448651;32;20242;-59
2021/11/21 14:16:06;;;;;;;60.07;35.17;;;;;;;;;;4447889;32;20228;-59